Aviation Digital Data Service (ADDS)

Output produced by METARs form (0905 UTC 29 March 2017)
found at http://aviationweather.gov/adds/metars/
 
KSLK 290531Z 2906/3006 35003KT P6SM BKN006 OVC018 
     FM291300 34006KT P6SM OVC015 
     FM291500 34007KT P6SM OVC025 
     FM300100 34005KT P6SM OVC035